Huvudsida
METAR-TAF:

METAR-TAF

Flygplatser :

Arlanda

Stockholm-Arlanda, Sverige

latitud: 59-39N, longitud: 017-57E, höjd: 38 m

Aktuellt väderrapport

Denna rapport gjordes för 45 minuter sedan, klockan 06:50 UTC
Vind 8 kt från syd/sydost
Temperatur 1°C
Fuktighet 100%
Tryck 997 hPa
Sikt 10 km eller mer
Brutna moln på en höjd av 400 ft

METAR: ESSA 220650Z 15008KT 9999 BKN004 01/01 Q0997 TEMPO BKN006

Tid: 08:35 (07:35 UTC)

Väderprognos

Denna rapport gjordes för 59 minuter sedan, klockan 06:36 UTC
Prognos gäller från 22 kl. 06 UTC till 23 kl. 06 UTC
Vind 8 kt från syd/sydost
Sikt 10 km eller mer
Brutna moln på en höjd av 400 ft
Temporärt
från 22 kl. 06 UTC till 22 kl. 17 UTC
Få moln på en höjd av 400 ft
Brutna moln på en höjd av 1000 ft
Sannolikhet 40%
från 22 kl. 17 UTC till 23 kl. 03 UTC
Sikt: 1200 m
Brutna moln på en höjd av 500 ft
lätt regn, fuktdis,

TAF: ESSA 220636Z 2206/2306 16008KT 9999 BKN004 TEMPO 2206/2217 FEW004 BKN010 PROB40 2217/2303 1200 -RA BR BKN005

Aktuella väderrapporter och prognoser från 4000 flygplatser (METAR- och TAF-rapporter).

De tillgängliga stationerna syns som gula och röda prickar på kartan.

För musen över prickarna för att se namnen på stationerna.

Klicka sedan för att få väderrapporter och prognoser.

För att ändra kartan: Klicka på de gröna knapparna med ett svart kors på för att zooma in; den gröna knappen med ett streck på för att zooma ut; eller på de gröna pilarna för angränsande kartor.


METAR-TAF: